TimeCDT,TemperatureF,Dew PointF,Humidity,Sea Level PressureIn,VisibilityMPH,Wind Direction,Wind SpeedMPH,Gust SpeedMPH,PrecipitationIn,Events,Conditions,WindDirDegrees,DateUTC
12:53 AM,66.0,64.9,96,30.07,4.0,NE,5.8,-,N/A,,Overcast,40,2013-08-18 05:53:00
1:53 AM,64.0,63.0,96,30.07,4.0,Calm,Calm,-,N/A,,Clear,0,2013-08-18 06:53:00
2:17 AM,62.6,62.6,100,30.08,1.5,Calm,Calm,-,N/A,,Clear,0,2013-08-18 07:17:00
2:25 AM,62.6,62.6,100,30.08,0.5,Calm,Calm,-,N/A,Fog,Fog,0,2013-08-18 07:25:00
2:39 AM,62.6,62.6,100,30.08,0.8,Calm,Calm,-,N/A,,Mist,0,2013-08-18 07:39:00
2:51 AM,64.4,62.6,94,30.08,0.2,Calm,Calm,-,N/A,Fog,Fog,0,2013-08-18 07:51:00
2:53 AM,64.0,63.0,96,30.07,0.5,Calm,Calm,-,N/A,Fog,Fog,0,2013-08-18 07:53:00
3:06 AM,64.4,62.6,94,30.08,2.0,Calm,Calm,-,N/A,,Overcast,0,2013-08-18 08:06:00
3:18 AM,64.4,64.4,100,30.08,3.0,Calm,Calm,-,N/A,,Overcast,0,2013-08-18 08:18:00
3:53 AM,64.9,64.0,97,30.08,6.0,Calm,Calm,-,N/A,,Overcast,0,2013-08-18 08:53:00
4:30 AM,64.4,64.4,100,30.09,6.0,Calm,Calm,-,N/A,,Overcast,0,2013-08-18 09:30:00
4:53 AM,66.0,64.0,93,30.09,7.0,Calm,Calm,-,N/A,,Overcast,0,2013-08-18 09:53:00
5:41 AM,66.2,64.4,94,30.10,8.0,Calm,Calm,-,N/A,,Overcast,0,2013-08-18 10:41:00
5:53 AM,64.9,64.0,97,30.10,7.0,Calm,Calm,-,N/A,,Overcast,0,2013-08-18 10:53:00
6:12 AM,66.2,64.4,94,30.11,5.0,Calm,Calm,-,N/A,,Overcast,0,2013-08-18 11:12:00
6:53 AM,64.9,64.0,97,30.11,4.0,Calm,Calm,-,N/A,,Overcast,0,2013-08-18 11:53:00
7:04 AM,66.2,64.4,94,30.12,4.0,Calm,Calm,-,N/A,,Overcast,0,2013-08-18 12:04:00
7:42 AM,66.2,64.4,94,30.12,5.0,Calm,Calm,-,N/A,,Overcast,0,2013-08-18 12:42:00
7:53 AM,66.9,64.9,93,30.12,5.0,Calm,Calm,-,N/A,,Overcast,0,2013-08-18 12:53:00
8:14 AM,68.0,66.2,94,30.13,5.0,Calm,Calm,-,N/A,,Overcast,0,2013-08-18 13:14:00
8:53 AM,70.0,66.9,90,30.13,6.0,Calm,Calm,-,N/A,,Overcast,0,2013-08-18 13:53:00
9:15 AM,69.8,66.2,88,30.15,7.0,Calm,Calm,-,N/A,,Overcast,0,2013-08-18 14:15:00
9:38 AM,71.6,66.2,83,30.15,9.0,Calm,Calm,-,N/A,,Overcast,0,2013-08-18 14:38:00
9:41 AM,69.8,66.2,88,30.15,9.0,Calm,Calm,-,N/A,,Overcast,0,2013-08-18 14:41:00
9:49 AM,71.6,66.2,83,30.15,9.0,Calm,Calm,-,N/A,,Overcast,0,2013-08-18 14:49:00
9:53 AM,71.1,66.9,87,30.15,9.0,Calm,Calm,-,N/A,,Overcast,0,2013-08-18 14:53:00
10:49 AM,71.6,66.2,83,30.15,10.0,Calm,Calm,-,N/A,,Overcast,0,2013-08-18 15:49:00
10:53 AM,71.1,66.0,84,30.15,10.0,Calm,Calm,-,N/A,,Overcast,0,2013-08-18 15:53:00
11:13 AM,73.4,66.2,78,30.15,10.0,Calm,Calm,-,N/A,,Overcast,0,2013-08-18 16:13:00
11:30 AM,73.4,66.2,78,30.15,10.0,NNE,3.5,-,N/A,,Overcast,20,2013-08-18 16:30:00
11:53 AM,73.9,66.9,79,30.14,10.0,Calm,Calm,-,N/A,,Overcast,0,2013-08-18 16:53:00
12:53 PM,73.9,66.0,76,30.13,10.0,Calm,Calm,-,N/A,,Overcast,0,2013-08-18 17:53:00
1:02 PM,73.4,66.2,78,30.13,10.0,Calm,Calm,-,N/A,,Overcast,0,2013-08-18 18:02:00
1:53 PM,75.0,66.9,76,30.12,10.0,Calm,Calm,-,N/A,,Mostly Cloudy,0,2013-08-18 18:53:00
2:26 PM,75.2,68.0,78,30.11,10.0,Calm,Calm,-,N/A,,Mostly Cloudy,0,2013-08-18 19:26:00
2:53 PM,77.0,66.9,71,30.10,10.0,NNW,4.6,-,N/A,,Mostly Cloudy,330,2013-08-18 19:53:00
3:01 PM,78.8,68.0,69,30.11,10.0,NNW,4.6,-,N/A,,Mostly Cloudy,330,2013-08-18 20:01:00
3:53 PM,75.0,68.0,79,30.08,8.0,Calm,Calm,-,0.01,,Mostly Cloudy,0,2013-08-18 20:53:00
4:53 PM,75.0,69.1,82,30.09,8.0,SSE,8.1,-,N/A,,Overcast,160,2013-08-18 21:53:00
5:53 PM,73.9,66.9,79,30.08,10.0,Calm,Calm,-,N/A,,Mostly Cloudy,0,2013-08-18 22:53:00
6:53 PM,75.0,69.1,82,30.06,10.0,Calm,Calm,-,N/A,,Overcast,0,2013-08-18 23:53:00
7:53 PM,71.1,68.0,90,30.07,8.0,Calm,Calm,-,N/A,,Partly Cloudy,0,2013-08-19 00:53:00
8:53 PM,68.0,66.9,96,30.09,6.0,Calm,Calm,-,N/A,,Clear,0,2013-08-19 01:53:00
9:08 PM,66.2,66.2,100,30.10,1.8,Calm,Calm,-,N/A,,Clear,0,2013-08-19 02:08:00
9:18 PM,68.0,66.2,94,30.11,3.0,Calm,Calm,-,N/A,,Clear,0,2013-08-19 02:18:00
9:36 PM,66.2,66.2,100,30.11,2.0,Calm,Calm,-,N/A,,Clear,0,2013-08-19 02:36:00
9:43 PM,66.2,66.2,100,30.11,1.8,Calm,Calm,-,N/A,,Clear,0,2013-08-19 02:43:00
9:47 PM,66.2,66.2,100,30.11,3.0,Calm,Calm,-,N/A,,Clear,0,2013-08-19 02:47:00
9:53 PM,66.9,66.0,97,30.10,4.0,Calm,Calm,-,N/A,,Clear,0,2013-08-19 02:53:00
10:09 PM,66.2,66.2,100,30.11,1.8,Calm,Calm,-,N/A,,Clear,0,2013-08-19 03:09:00
10:15 PM,64.4,64.4,100,30.11,0.2,Calm,Calm,-,N/A,Fog,Fog,0,2013-08-19 03:15:00
10:53 PM,64.9,64.9,100,30.10,0.5,Calm,Calm,-,N/A,Fog,Fog,0,2013-08-19 03:53:00
11:22 PM,64.4,64.4,100,30.10,0.8,Calm,Calm,-,N/A,,Mist,0,2013-08-19 04:22:00
11:33 PM,66.2,64.4,94,30.10,0.2,Calm,Calm,-,N/A,Fog,Fog,0,2013-08-19 04:33:00
11:53 PM,64.0,64.0,100,30.10,1.2,Calm,Calm,-,N/A,,Mostly Cloudy,0,2013-08-19 04:53:00
11:57 PM,64.4,64.4,100,30.10,3.0,Calm,Calm,-,N/A,,Mostly Cloudy,0,2013-08-19 04:57:00